sensor_id;sensor_type;location;lat;lon;timestamp;temperature;humidity
61207;DHT22;47070;49.212;8.084;2023-03-01T00:03:37;4.10;93.40
61207;DHT22;47070;49.212;8.084;2023-03-01T00:07:37;4.10;94.30
61207;DHT22;47070;49.212;8.084;2023-03-01T00:11:38;4.10;95.60
61207;DHT22;47070;49.212;8.084;2023-03-01T00:15:39;3.90;94.10
61207;DHT22;47070;49.212;8.084;2023-03-01T00:19:40;3.90;94.60
61207;DHT22;47070;49.212;8.084;2023-03-01T00:23:40;4.20;93.80
61207;DHT22;47070;49.212;8.084;2023-03-01T00:27:41;4.00;95.30
61207;DHT22;47070;49.212;8.084;2023-03-01T00:31:41;4.70;94.80
61207;DHT22;47070;49.212;8.084;2023-03-01T00:35:42;5.00;93.40
61207;DHT22;47070;49.212;8.084;2023-03-01T00:39:42;4.50;93.60
61207;DHT22;47070;49.212;8.084;2023-03-01T00:43:43;4.00;94.00
61207;DHT22;47070;49.212;8.084;2023-03-01T00:47:43;3.90;94.30
61207;DHT22;47070;49.212;8.084;2023-03-01T00:51:44;4.30;94.90
61207;DHT22;47070;49.212;8.084;2023-03-01T00:55:44;5.40;93.40
61207;DHT22;47070;49.212;8.084;2023-03-01T00:59:45;5.20;93.50
61207;DHT22;47070;49.212;8.084;2023-03-01T01:03:49;4.30;93.60
61207;DHT22;47070;49.212;8.084;2023-03-01T01:07:50;4.60;95.80
61207;DHT22;47070;49.212;8.084;2023-03-01T01:11:50;4.10;94.10
61207;DHT22;47070;49.212;8.084;2023-03-01T01:15:51;4.10;94.40
61207;DHT22;47070;49.212;8.084;2023-03-01T01:19:51;4.30;94.60
61207;DHT22;47070;49.212;8.084;2023-03-01T01:23:52;4.00;94.60
61207;DHT22;47070;49.212;8.084;2023-03-01T01:27:52;3.70;94.60
61207;DHT22;47070;49.212;8.084;2023-03-01T01:31:53;4.00;96.60
61207;DHT22;47070;49.212;8.084;2023-03-01T01:35:53;3.70;94.70
61207;DHT22;47070;49.212;8.084;2023-03-01T01:39:54;3.70;95.20
61207;DHT22;47070;49.212;8.084;2023-03-01T01:48:10;3.70;96.80
61207;DHT22;47070;49.212;8.084;2023-03-01T01:56:13;3.70;95.60
61207;DHT22;47070;49.212;8.084;2023-03-01T02:00:17;3.70;95.40
61207;DHT22;47070;49.212;8.084;2023-03-01T02:04:18;3.70;95.30
61207;DHT22;47070;49.212;8.084;2023-03-01T02:08:19;4.10;96.70
61207;DHT22;47070;49.212;8.084;2023-03-01T02:12:21;4.60;95.80
61207;DHT22;47070;49.212;8.084;2023-03-01T02:16:23;4.40;95.30
61207;DHT22;47070;49.212;8.084;2023-03-01T02:20:30;4.30;96.90
61207;DHT22;47070;49.212;8.084;2023-03-01T02:24:36;4.20;95.30
61207;DHT22;47070;49.212;8.084;2023-03-01T02:28:41;4.10;95.40
61207;DHT22;47070;49.212;8.084;2023-03-01T02:32:43;4.10;95.30
61207;DHT22;47070;49.212;8.084;2023-03-01T02:36:51;4.10;95.20
61207;DHT22;47070;49.212;8.084;2023-03-01T02:40:52;3.70;96.30
61207;DHT22;47070;49.212;8.084;2023-03-01T02:44:54;4.50;94.60
61207;DHT22;47070;49.212;8.084;2023-03-01T02:48:56;4.10;94.60
61207;DHT22;47070;49.212;8.084;2023-03-01T02:56:57;4.90;93.40
61207;DHT22;47070;49.212;8.084;2023-03-01T03:00:57;4.10;94.70
61207;DHT22;47070;49.212;8.084;2023-03-01T03:05:14;3.80;95.20
61207;DHT22;47070;49.212;8.084;2023-03-01T03:09:15;4.70;95.60
61207;DHT22;47070;49.212;8.084;2023-03-01T03:13:15;5.40;97.50
61207;DHT22;47070;49.212;8.084;2023-03-01T03:17:16;7.10;95.80
61207;DHT22;47070;49.212;8.084;2023-03-01T03:21:17;5.80;95.40
61207;DHT22;47070;49.212;8.084;2023-03-01T03:25:18;4.40;93.70
61207;DHT22;47070;49.212;8.084;2023-03-01T03:29:18;3.80;95.20
61207;DHT22;47070;49.212;8.084;2023-03-01T03:33:19;3.70;95.30
61207;DHT22;47070;49.212;8.084;2023-03-01T03:37:19;3.60;95.50
61207;DHT22;47070;49.212;8.084;2023-03-01T03:41:38;4.40;96.00
61207;DHT22;47070;49.212;8.084;2023-03-01T03:45:39;3.90;95.30
61207;DHT22;47070;49.212;8.084;2023-03-01T03:49:39;3.50;95.60
61207;DHT22;47070;49.212;8.084;2023-03-01T03:53:40;3.10;96.00
61207;DHT22;47070;49.212;8.084;2023-03-01T03:57:40;3.10;96.30
61207;DHT22;47070;49.212;8.084;2023-03-01T04:01:41;3.40;96.10
61207;DHT22;47070;49.212;8.084;2023-03-01T04:05:42;3.80;97.00
61207;DHT22;47070;49.212;8.084;2023-03-01T04:09:43;3.40;96.20
61207;DHT22;47070;49.212;8.084;2023-03-01T04:13:43;4.30;95.50
61207;DHT22;47070;49.212;8.084;2023-03-01T04:17:44;3.60;95.90
61207;DHT22;47070;49.212;8.084;2023-03-01T04:21:45;3.20;96.20
61207;DHT22;47070;49.212;8.084;2023-03-01T04:25:47;3.20;96.30
61207;DHT22;47070;49.212;8.084;2023-03-01T04:29:54;2.80;96.50
61207;DHT22;47070;49.212;8.084;2023-03-01T04:33:54;2.70;96.80
61207;DHT22;47070;49.212;8.084;2023-03-01T04:37:55;3.00;97.00
61207;DHT22;47070;49.212;8.084;2023-03-01T04:41:56;3.10;96.60
61207;DHT22;47070;49.212;8.084;2023-03-01T04:45:59;3.40;96.80
61207;DHT22;47070;49.212;8.084;2023-03-01T04:50:02;3.40;96.00
61207;DHT22;47070;49.212;8.084;2023-03-01T04:54:03;3.30;96.50
61207;DHT22;47070;49.212;8.084;2023-03-01T04:58:05;3.20;96.40
61207;DHT22;47070;49.212;8.084;2023-03-01T05:02:05;4.10;97.80
61207;DHT22;47070;49.212;8.084;2023-03-01T05:06:06;3.40;96.10
61207;DHT22;47070;49.212;8.084;2023-03-01T05:10:06;3.70;96.50
61207;DHT22;47070;49.212;8.084;2023-03-01T05:14:07;3.50;98.40
61207;DHT22;47070;49.212;8.084;2023-03-01T05:18:08;3.40;96.60
61207;DHT22;47070;49.212;8.084;2023-03-01T05:22:11;4.40;99.90
61207;DHT22;47070;49.212;8.084;2023-03-01T05:26:12;4.30;95.10
61207;DHT22;47070;49.212;8.084;2023-03-01T05:30:12;3.80;95.50
61207;DHT22;47070;49.212;8.084;2023-03-01T05:34:13;3.30;96.30
61207;DHT22;47070;49.212;8.084;2023-03-01T05:38:14;3.50;97.40
61207;DHT22;47070;49.212;8.084;2023-03-01T05:42:14;3.50;96.80
61207;DHT22;47070;49.212;8.084;2023-03-01T05:46:15;3.40;96.60
61207;DHT22;47070;49.212;8.084;2023-03-01T05:50:19;2.90;96.90
61207;DHT22;47070;49.212;8.084;2023-03-01T05:54:20;3.00;97.50
61207;DHT22;47070;49.212;8.084;2023-03-01T05:58:21;3.60;99.30
61207;DHT22;47070;49.212;8.084;2023-03-01T06:02:22;3.60;96.00
61207;DHT22;47070;49.212;8.084;2023-03-01T06:06:22;3.20;96.40
61207;DHT22;47070;49.212;8.084;2023-03-01T06:10:24;3.90;99.30
61207;DHT22;47070;49.212;8.084;2023-03-01T06:14:24;3.40;96.40
61207;DHT22;47070;49.212;8.084;2023-03-01T06:18:24;3.70;96.10
61207;DHT22;47070;49.212;8.084;2023-03-01T06:22:25;3.60;97.20
61207;DHT22;47070;49.212;8.084;2023-03-01T06:26:25;4.80;97.70
61207;DHT22;47070;49.212;8.084;2023-03-01T06:30:26;3.60;95.80
61207;DHT22;47070;49.212;8.084;2023-03-01T06:34:26;3.40;96.20
61207;DHT22;47070;49.212;8.084;2023-03-01T06:38:27;3.90;97.80
61207;DHT22;47070;49.212;8.084;2023-03-01T06:42:27;4.20;96.90
61207;DHT22;47070;49.212;8.084;2023-03-01T06:46:28;5.00;96.10
61207;DHT22;47070;49.212;8.084;2023-03-01T06:50:28;3.90;95.40
61207;DHT22;47070;49.212;8.084;2023-03-01T06:54:28;3.30;96.20
61207;DHT22;47070;49.212;8.084;2023-03-01T06:58:29;3.40;96.70
61207;DHT22;47070;49.212;8.084;2023-03-01T07:02:29;4.30;98.50
61207;DHT22;47070;49.212;8.084;2023-03-01T07:06:30;6.00;99.90
61207;DHT22;47070;49.212;8.084;2023-03-01T07:10:30;5.10;95.20
61207;DHT22;47070;49.212;8.084;2023-03-01T07:14:31;5.30;95.70
61207;DHT22;47070;49.212;8.084;2023-03-01T07:18:31;5.00;95.50
61207;DHT22;47070;49.212;8.084;2023-03-01T07:22:32;4.60;95.30
61207;DHT22;47070;49.212;8.084;2023-03-01T07:26:32;4.40;95.70
61207;DHT22;47070;49.212;8.084;2023-03-01T07:30:33;5.90;94.60
61207;DHT22;47070;49.212;8.084;2023-03-01T07:34:33;5.60;96.40
61207;DHT22;47070;49.212;8.084;2023-03-01T07:38:34;5.70;95.30
61207;DHT22;47070;49.212;8.084;2023-03-01T07:42:34;6.20;96.90
61207;DHT22;47070;49.212;8.084;2023-03-01T07:46:34;5.20;95.10
61207;DHT22;47070;49.212;8.084;2023-03-01T07:50:35;5.10;95.60
61207;DHT22;47070;49.212;8.084;2023-03-01T07:54:35;6.30;98.30
61207;DHT22;47070;49.212;8.084;2023-03-01T07:58:37;6.00;94.10
61207;DHT22;47070;49.212;8.084;2023-03-01T08:02:37;6.10;94.90
61207;DHT22;47070;49.212;8.084;2023-03-01T08:06:38;5.70;94.90
61207;DHT22;47070;49.212;8.084;2023-03-01T08:10:38;6.20;94.00
61207;DHT22;47070;49.212;8.084;2023-03-01T08:14:39;5.70;94.10
61207;DHT22;47070;49.212;8.084;2023-03-01T08:18:39;5.50;95.20
61207;DHT22;47070;49.212;8.084;2023-03-01T08:22:40;5.70;94.90
61207;DHT22;47070;49.212;8.084;2023-03-01T08:26:40;7.70;92.90
61207;DHT22;47070;49.212;8.084;2023-03-01T08:30:41;7.50;92.80
61207;DHT22;47070;49.212;8.084;2023-03-01T08:34:41;8.60;94.00
61207;DHT22;47070;49.212;8.084;2023-03-01T08:38:42;8.70;95.40
61207;DHT22;47070;49.212;8.084;2023-03-01T08:42:42;10.10;91.70
61207;DHT22;47070;49.212;8.084;2023-03-01T08:46:43;10.40;94.50
61207;DHT22;47070;49.212;8.084;2023-03-01T08:50:44;8.30;93.10
61207;DHT22;47070;49.212;8.084;2023-03-01T08:54:46;8.70;90.90
61207;DHT22;47070;49.212;8.084;2023-03-01T08:58:47;7.70;91.40
61207;DHT22;47070;49.212;8.084;2023-03-01T09:02:48;8.30;93.40
61207;DHT22;47070;49.212;8.084;2023-03-01T09:06:48;10.20;93.70
61207;DHT22;47070;49.212;8.084;2023-03-01T09:10:49;9.30;88.80
61207;DHT22;47070;49.212;8.084;2023-03-01T09:14:49;9.10;91.60
61207;DHT22;47070;49.212;8.084;2023-03-01T09:18:53;9.70;93.30
61207;DHT22;47070;49.212;8.084;2023-03-01T09:22:54;8.10;90.90
61207;DHT22;47070;49.212;8.084;2023-03-01T09:26:55;6.70;95.50
61207;DHT22;47070;49.212;8.084;2023-03-01T09:30:59;8.70;95.80
61207;DHT22;47070;49.212;8.084;2023-03-01T09:35:00;9.10;96.00
61207;DHT22;47070;49.212;8.084;2023-03-01T09:39:06;10.00;91.60
61207;DHT22;47070;49.212;8.084;2023-03-01T09:43:15;9.80;92.40
61207;DHT22;47070;49.212;8.084;2023-03-01T09:47:22;9.80;94.70
61207;DHT22;47070;49.212;8.084;2023-03-01T09:51:29;8.90;93.30
61207;DHT22;47070;49.212;8.084;2023-03-01T09:55:37;9.70;96.10
61207;DHT22;47070;49.212;8.084;2023-03-01T09:59:50;9.80;95.20
61207;DHT22;47070;49.212;8.084;2023-03-01T10:12:37;9.30;90.80
61207;DHT22;47070;49.212;8.084;2023-03-01T10:16:42;9.70;93.20
61207;DHT22;47070;49.212;8.084;2023-03-01T10:24:53;9.80;93.00
61207;DHT22;47070;49.212;8.084;2023-03-01T10:37:24;10.40;93.70
61207;DHT22;47070;49.212;8.084;2023-03-01T10:41:27;10.30;93.10
61207;DHT22;47070;49.212;8.084;2023-03-01T10:45:37;10.30;95.40
61207;DHT22;47070;49.212;8.084;2023-03-01T10:49:38;10.50;93.50
61207;DHT22;47070;49.212;8.084;2023-03-01T10:53:42;11.00;90.60
61207;DHT22;47070;49.212;8.084;2023-03-01T10:57:43;10.70;90.40
61207;DHT22;47070;49.212;8.084;2023-03-01T11:01:43;10.20;90.60
61207;DHT22;47070;49.212;8.084;2023-03-01T11:06:05;10.20;89.80
61207;DHT22;47070;49.212;8.084;2023-03-01T11:10:11;11.10;90.60
61207;DHT22;47070;49.212;8.084;2023-03-01T11:14:24;11.30;92.50
61207;DHT22;47070;49.212;8.084;2023-03-01T11:18:25;11.50;90.20
61207;DHT22;47070;49.212;8.084;2023-03-01T11:22:26;11.10;94.30
61207;DHT22;47070;49.212;8.084;2023-03-01T11:26:29;10.60;90.50
61207;DHT22;47070;49.212;8.084;2023-03-01T11:30:39;9.60;92.40
61207;DHT22;47070;49.212;8.084;2023-03-01T11:38:40;10.60;90.80
61207;DHT22;47070;49.212;8.084;2023-03-01T11:46:54;12.60;90.50
61207;DHT22;47070;49.212;8.084;2023-03-01T11:50:58;12.60;90.60
61207;DHT22;47070;49.212;8.084;2023-03-01T11:59:09;14.20;92.10
61207;DHT22;47070;49.212;8.084;2023-03-01T12:07:17;13.20;94.00
61207;DHT22;47070;49.212;8.084;2023-03-01T12:27:54;14.20;83.30
61207;DHT22;47070;49.212;8.084;2023-03-01T12:32:06;13.00;82.10
61207;DHT22;47070;49.212;8.084;2023-03-01T12:44:35;14.30;89.60
61207;DHT22;47070;49.212;8.084;2023-03-01T12:52:58;14.50;86.20
61207;DHT22;47070;49.212;8.084;2023-03-01T12:57:03;15.50;85.70
61207;DHT22;47070;49.212;8.084;2023-03-01T13:05:59;16.00;77.90
61207;DHT22;47070;49.212;8.084;2023-03-01T13:13:39;15.60;82.70
61207;DHT22;47070;49.212;8.084;2023-03-01T13:17:40;16.50;87.30
61207;DHT22;47070;49.212;8.084;2023-03-01T13:21:42;16.00;75.50
61207;DHT22;47070;49.212;8.084;2023-03-01T13:29:59;17.60;84.20
61207;DHT22;47070;49.212;8.084;2023-03-01T13:34:03;16.90;73.30
61207;DHT22;47070;49.212;8.084;2023-03-01T13:42:35;16.70;82.40
61207;DHT22;47070;49.212;8.084;2023-03-01T13:46:37;16.70;75.00
61207;DHT22;47070;49.212;8.084;2023-03-01T13:50:43;16.80;75.50
61207;DHT22;47070;49.212;8.084;2023-03-01T13:54:45;17.10;77.10
61207;DHT22;47070;49.212;8.084;2023-03-01T13:59:20;16.80;78.90
61207;DHT22;47070;49.212;8.084;2023-03-01T14:07:23;16.30;79.20
61207;DHT22;47070;49.212;8.084;2023-03-01T14:15:43;16.10;74.70
61207;DHT22;47070;49.212;8.084;2023-03-01T14:19:45;15.90;73.80
61207;DHT22;47070;49.212;8.084;2023-03-01T14:23:47;15.60;74.50
61207;DHT22;47070;49.212;8.084;2023-03-01T14:28:30;15.20;84.10
61207;DHT22;47070;49.212;8.084;2023-03-01T14:32:18;14.70;86.70
61207;DHT22;47070;49.212;8.084;2023-03-01T14:36:25;13.90;83.00
61207;DHT22;47070;49.212;8.084;2023-03-01T14:40:33;13.80;83.30
61207;DHT22;47070;49.212;8.084;2023-03-01T14:44:34;14.00;85.90
61207;DHT22;47070;49.212;8.084;2023-03-01T14:48:37;14.00;79.80
61207;DHT22;47070;49.212;8.084;2023-03-01T14:52:39;11.90;82.10
61207;DHT22;47070;49.212;8.084;2023-03-01T14:56:44;11.30;81.80
61207;DHT22;47070;49.212;8.084;2023-03-01T15:00:48;13.70;91.70
61207;DHT22;47070;49.212;8.084;2023-03-01T15:04:50;13.70;83.10
61207;DHT22;47070;49.212;8.084;2023-03-01T15:08:52;13.00;79.90
61207;DHT22;47070;49.212;8.084;2023-03-01T15:12:54;12.70;89.90
61207;DHT22;47070;49.212;8.084;2023-03-01T15:16:55;12.90;87.30
61207;DHT22;47070;49.212;8.084;2023-03-01T15:20:56;13.80;82.50
61207;DHT22;47070;49.212;8.084;2023-03-01T15:25:05;13.50;80.70
61207;DHT22;47070;49.212;8.084;2023-03-01T15:29:10;12.90;80.10
61207;DHT22;47070;49.212;8.084;2023-03-01T15:41:45;12.60;89.90
61207;DHT22;47070;49.212;8.084;2023-03-01T15:45:46;12.80;83.50
61207;DHT22;47070;49.212;8.084;2023-03-01T15:49:55;13.90;85.50
61207;DHT22;47070;49.212;8.084;2023-03-01T15:53:58;13.20;82.60
61207;DHT22;47070;49.212;8.084;2023-03-01T16:02:10;12.80;83.50
61207;DHT22;47070;49.212;8.084;2023-03-01T16:06:12;12.70;81.70
61207;DHT22;47070;49.212;8.084;2023-03-01T16:10:13;12.30;82.30
61207;DHT22;47070;49.212;8.084;2023-03-01T16:14:14;12.20;89.60
61207;DHT22;47070;49.212;8.084;2023-03-01T16:18:16;12.20;84.90
61207;DHT22;47070;49.212;8.084;2023-03-01T16:22:16;12.50;90.20
61207;DHT22;47070;49.212;8.084;2023-03-01T16:26:17;12.50;87.90
61207;DHT22;47070;49.212;8.084;2023-03-01T16:30:19;12.60;86.30
61207;DHT22;47070;49.212;8.084;2023-03-01T16:34:20;12.00;85.60
61207;DHT22;47070;49.212;8.084;2023-03-01T16:38:21;12.80;92.90
61207;DHT22;47070;49.212;8.084;2023-03-01T16:42:22;13.20;90.20
61207;DHT22;47070;49.212;8.084;2023-03-01T16:46:24;12.30;82.70
61207;DHT22;47070;49.212;8.084;2023-03-01T16:50:25;12.60;84.20
61207;DHT22;47070;49.212;8.084;2023-03-01T16:54:25;10.80;82.40
61207;DHT22;47070;49.212;8.084;2023-03-01T16:58:26;10.50;83.80
61207;DHT22;47070;49.212;8.084;2023-03-01T17:02:26;11.10;83.50
61207;DHT22;47070;49.212;8.084;2023-03-01T17:06:27;10.30;85.20
61207;DHT22;47070;49.212;8.084;2023-03-01T17:10:27;9.90;86.10
61207;DHT22;47070;49.212;8.084;2023-03-01T17:14:28;9.60;86.70
61207;DHT22;47070;49.212;8.084;2023-03-01T17:18:28;9.40;88.10
61207;DHT22;47070;49.212;8.084;2023-03-01T17:22:29;9.00;88.10
61207;DHT22;47070;49.212;8.084;2023-03-01T17:26:29;8.60;89.40
61207;DHT22;47070;49.212;8.084;2023-03-01T17:30:30;8.70;90.10
61207;DHT22;47070;49.212;8.084;2023-03-01T17:34:31;8.40;89.70
61207;DHT22;47070;49.212;8.084;2023-03-01T17:38:31;8.10;90.40
61207;DHT22;47070;49.212;8.084;2023-03-01T17:42:32;7.80;91.00
61207;DHT22;47070;49.212;8.084;2023-03-01T17:46:32;7.50;91.20
61207;DHT22;47070;49.212;8.084;2023-03-01T17:50:33;7.30;91.60
61207;DHT22;47070;49.212;8.084;2023-03-01T17:54:36;7.20;91.70
61207;DHT22;47070;49.212;8.084;2023-03-01T17:58:37;7.10;91.80
61207;DHT22;47070;49.212;8.084;2023-03-01T18:02:38;7.40;91.40
61207;DHT22;47070;49.212;8.084;2023-03-01T18:06:38;7.50;91.60
61207;DHT22;47070;49.212;8.084;2023-03-01T18:10:40;7.30;91.50
61207;DHT22;47070;49.212;8.084;2023-03-01T18:14:40;7.80;91.50
61207;DHT22;47070;49.212;8.084;2023-03-01T18:18:41;7.30;91.00
61207;DHT22;47070;49.212;8.084;2023-03-01T18:22:41;6.80;91.80
61207;DHT22;47070;49.212;8.084;2023-03-01T18:26:42;7.10;91.90
61207;DHT22;47070;49.212;8.084;2023-03-01T18:30:42;7.30;91.60
61207;DHT22;47070;49.212;8.084;2023-03-01T18:34:43;7.30;93.30
61207;DHT22;47070;49.212;8.084;2023-03-01T18:38:44;7.40;91.90
61207;DHT22;47070;49.212;8.084;2023-03-01T18:42:45;7.30;91.70
61207;DHT22;47070;49.212;8.084;2023-03-01T18:46:45;7.40;92.30
61207;DHT22;47070;49.212;8.084;2023-03-01T18:50:46;7.20;91.80
61207;DHT22;47070;49.212;8.084;2023-03-01T18:54:46;7.10;91.60
61207;DHT22;47070;49.212;8.084;2023-03-01T18:58:47;7.30;91.90
61207;DHT22;47070;49.212;8.084;2023-03-01T19:02:47;7.40;91.80
61207;DHT22;47070;49.212;8.084;2023-03-01T19:06:47;7.30;92.00
61207;DHT22;47070;49.212;8.084;2023-03-01T19:10:55;7.30;91.90
61207;DHT22;47070;49.212;8.084;2023-03-01T19:14:56;7.10;91.80
61207;DHT22;47070;49.212;8.084;2023-03-01T19:18:57;7.00;92.70
61207;DHT22;47070;49.212;8.084;2023-03-01T19:22:58;7.10;92.80
61207;DHT22;47070;49.212;8.084;2023-03-01T19:26:59;7.00;92.00
61207;DHT22;47070;49.212;8.084;2023-03-01T19:31:03;7.00;93.50
61207;DHT22;47070;49.212;8.084;2023-03-01T19:35:04;7.00;92.10
61207;DHT22;47070;49.212;8.084;2023-03-01T19:39:05;7.40;92.60
61207;DHT22;47070;49.212;8.084;2023-03-01T19:43:05;7.10;92.60
61207;DHT22;47070;49.212;8.084;2023-03-01T19:47:06;6.90;92.20
61207;DHT22;47070;49.212;8.084;2023-03-01T19:51:07;6.80;92.30
61207;DHT22;47070;49.212;8.084;2023-03-01T19:55:07;7.00;92.40
61207;DHT22;47070;49.212;8.084;2023-03-01T19:59:08;7.00;92.40
61207;DHT22;47070;49.212;8.084;2023-03-01T20:03:09;7.10;92.00
61207;DHT22;47070;49.212;8.084;2023-03-01T20:07:09;7.10;92.50
61207;DHT22;47070;49.212;8.084;2023-03-01T20:11:10;7.30;94.00
61207;DHT22;47070;49.212;8.084;2023-03-01T20:15:11;7.00;92.50
61207;DHT22;47070;49.212;8.084;2023-03-01T20:19:11;7.10;94.50
61207;DHT22;47070;49.212;8.084;2023-03-01T20:23:12;7.20;91.90
61207;DHT22;47070;49.212;8.084;2023-03-01T20:27:12;7.40;92.10
61207;DHT22;47070;49.212;8.084;2023-03-01T20:31:13;7.60;94.50
61207;DHT22;47070;49.212;8.084;2023-03-01T20:35:14;7.80;92.60
61207;DHT22;47070;49.212;8.084;2023-03-01T20:39:15;7.50;91.90
61207;DHT22;47070;49.212;8.084;2023-03-01T20:43:15;7.50;93.50
61207;DHT22;47070;49.212;8.084;2023-03-01T20:47:15;7.20;91.90
61207;DHT22;47070;49.212;8.084;2023-03-01T20:51:16;7.30;92.40
61207;DHT22;47070;49.212;8.084;2023-03-01T20:55:16;7.30;93.10
61207;DHT22;47070;49.212;8.084;2023-03-01T20:59:17;6.90;92.70
61207;DHT22;47070;49.212;8.084;2023-03-01T21:03:17;7.10;93.20
61207;DHT22;47070;49.212;8.084;2023-03-01T21:07:18;7.10;92.80
61207;DHT22;47070;49.212;8.084;2023-03-01T21:11:18;7.10;93.00
61207;DHT22;47070;49.212;8.084;2023-03-01T21:15:19;7.80;92.20
61207;DHT22;47070;49.212;8.084;2023-03-01T21:19:19;7.90;93.70
61207;DHT22;47070;49.212;8.084;2023-03-01T21:23:20;7.90;91.30
61207;DHT22;47070;49.212;8.084;2023-03-01T21:27:21;7.70;91.20
61207;DHT22;47070;49.212;8.084;2023-03-01T21:31:25;7.40;92.10
61207;DHT22;47070;49.212;8.084;2023-03-01T21:35:31;8.30;91.80
61207;DHT22;47070;49.212;8.084;2023-03-01T21:39:31;7.60;94.60
61207;DHT22;47070;49.212;8.084;2023-03-01T21:43:32;7.60;93.20
61207;DHT22;47070;49.212;8.084;2023-03-01T21:47:33;7.10;92.20
61207;DHT22;47070;49.212;8.084;2023-03-01T21:51:35;6.80;92.50
61207;DHT22;47070;49.212;8.084;2023-03-01T21:55:36;7.00;94.30
61207;DHT22;47070;49.212;8.084;2023-03-01T21:59:36;7.30;93.90
61207;DHT22;47070;49.212;8.084;2023-03-01T22:03:37;7.00;93.40
61207;DHT22;47070;49.212;8.084;2023-03-01T22:07:44;7.10;94.30
61207;DHT22;47070;49.212;8.084;2023-03-01T22:11:45;7.20;92.80
61207;DHT22;47070;49.212;8.084;2023-03-01T22:15:46;6.70;93.10
61207;DHT22;47070;49.212;8.084;2023-03-01T22:19:46;6.70;93.20
61207;DHT22;47070;49.212;8.084;2023-03-01T22:23:47;6.80;92.90
61207;DHT22;47070;49.212;8.084;2023-03-01T22:27:47;7.00;95.70
61207;DHT22;47070;49.212;8.084;2023-03-01T22:31:48;6.50;93.20
61207;DHT22;47070;49.212;8.084;2023-03-01T22:35:49;6.40;93.50
61207;DHT22;47070;49.212;8.084;2023-03-01T22:39:49;6.50;93.50
61207;DHT22;47070;49.212;8.084;2023-03-01T22:43:50;6.60;93.60
61207;DHT22;47070;49.212;8.084;2023-03-01T22:47:50;7.00;93.50
61207;DHT22;47070;49.212;8.084;2023-03-01T22:51:51;6.90;93.40
61207;DHT22;47070;49.212;8.084;2023-03-01T22:55:51;6.60;93.10
61207;DHT22;47070;49.212;8.084;2023-03-01T22:59:52;6.40;93.40
61207;DHT22;47070;49.212;8.084;2023-03-01T23:03:52;6.20;94.00
61207;DHT22;47070;49.212;8.084;2023-03-01T23:07:53;6.20;94.10
61207;DHT22;47070;49.212;8.084;2023-03-01T23:11:54;6.30;94.20
61207;DHT22;47070;49.212;8.084;2023-03-01T23:15:55;6.20;94.00
61207;DHT22;47070;49.212;8.084;2023-03-01T23:19:55;5.90;94.50
61207;DHT22;47070;49.212;8.084;2023-03-01T23:23:56;5.90;95.00
61207;DHT22;47070;49.212;8.084;2023-03-01T23:27:56;6.30;95.00
61207;DHT22;47070;49.212;8.084;2023-03-01T23:31:57;6.50;93.80
61207;DHT22;47070;49.212;8.084;2023-03-01T23:35:58;6.10;94.20
61207;DHT22;47070;49.212;8.084;2023-03-01T23:40:02;6.80;93.20
61207;DHT22;47070;49.212;8.084;2023-03-01T23:44:05;6.30;93.80
61207;DHT22;47070;49.212;8.084;2023-03-01T23:48:05;6.60;95.60
61207;DHT22;47070;49.212;8.084;2023-03-01T23:52:06;6.40;97.20
61207;DHT22;47070;49.212;8.084;2023-03-01T23:56:06;6.70;95.20
